createdAt,value
2018-01-07T00:00:35.673Z,21.03
2018-01-07T00:03:03.326Z,20.00
2018-01-07T00:05:30.900Z,22.13
2018-01-07T00:07:58.524Z,19.27
2018-01-07T00:10:26.871Z,22.17
2018-01-07T00:12:54.519Z,21.60
2018-01-07T00:15:22.091Z,19.23
2018-01-07T00:17:49.695Z,17.27
2018-01-07T00:20:17.275Z,20.17
2018-01-07T00:22:44.902Z,20.87
2018-01-07T00:25:12.470Z,20.27
2018-01-07T00:27:40.037Z,21.83
2018-01-07T00:30:08.400Z,21.63
2018-01-07T00:32:36.696Z,17.03
2018-01-07T00:35:04.298Z,20.17
2018-01-07T00:37:31.838Z,17.57
2018-01-07T00:39:59.406Z,20.13
2018-01-07T00:42:27.022Z,18.43
2018-01-07T00:44:54.649Z,21.17
2018-01-07T00:47:22.215Z,18.10
2018-01-07T00:49:49.763Z,20.47
2018-01-07T00:52:18.102Z,17.27
2018-01-07T00:54:45.626Z,23.47
2018-01-07T00:57:13.195Z,19.33
2018-01-07T00:59:41.492Z,18.27
2018-01-07T01:02:09.049Z,20.10
2018-01-07T01:07:19.188Z,17.90
2018-01-07T01:09:46.757Z,20.13
2018-01-07T01:12:14.314Z,16.43
2018-01-07T01:14:41.834Z,17.83
2018-01-07T01:17:09.394Z,14.40
2018-01-07T01:19:36.989Z,15.00
2018-01-07T01:22:04.567Z,16.80
2018-01-07T01:24:32.169Z,14.97
2018-01-07T01:26:59.700Z,13.53
2018-01-07T01:29:27.268Z,16.70
2018-01-07T01:31:54.879Z,14.80
2018-01-07T01:34:22.433Z,16.30
2018-01-07T01:36:49.965Z,16.53
2018-01-07T01:39:17.538Z,16.93
2018-01-07T01:41:45.061Z,14.07
2018-01-07T01:44:12.602Z,17.50
2018-01-07T01:46:40.171Z,17.30
2018-01-07T01:49:20.277Z,16.27
2018-01-07T01:51:47.802Z,14.67
2018-01-07T01:54:15.361Z,15.30
2018-01-07T01:56:42.890Z,14.97
2018-01-07T01:59:10.465Z,16.70
2018-01-07T02:01:38.033Z,19.37
2018-01-07T02:04:05.600Z,15.70
2018-01-07T02:06:33.153Z,17.70
2018-01-07T02:09:00.677Z,16.97
2018-01-07T02:11:28.238Z,15.17
2018-01-07T02:13:56.585Z,15.67
2018-01-07T02:16:24.116Z,16.87
2018-01-07T02:18:51.669Z,15.77
2018-01-07T02:21:19.230Z,15.00
2018-01-07T02:23:46.788Z,14.27
2018-01-07T02:26:15.101Z,16.37
2018-01-07T02:28:42.663Z,14.07
2018-01-07T02:31:10.228Z,14.77
2018-01-07T02:33:37.767Z,13.40
2018-01-07T02:36:05.353Z,14.83
2018-01-07T02:38:32.873Z,16.80
2018-01-07T02:41:00.424Z,16.93
2018-01-07T02:43:27.962Z,18.23
2018-01-07T02:45:55.521Z,17.93
2018-01-07T02:48:23.081Z,18.53
2018-01-07T02:50:50.639Z,16.43
2018-01-07T02:53:18.215Z,21.37
2018-01-07T02:55:45.737Z,16.73
2018-01-07T02:58:13.272Z,14.27
2018-01-07T03:00:40.846Z,15.73
2018-01-07T03:03:08.373Z,19.37
2018-01-07T03:05:35.906Z,14.33
2018-01-07T03:08:03.430Z,17.50
2018-01-07T03:10:31.020Z,16.83
2018-01-07T03:12:59.648Z,15.30
2018-01-07T03:15:27.201Z,15.03
2018-01-07T03:17:54.766Z,15.03
2018-01-07T03:20:22.297Z,16.60
2018-01-07T03:22:49.867Z,14.90
2018-01-07T03:25:17.413Z,17.63
2018-01-07T03:27:44.941Z,15.03
2018-01-07T03:30:12.495Z,14.97
2018-01-07T03:32:40.036Z,14.07
2018-01-07T03:35:07.598Z,16.40
2018-01-07T03:37:35.121Z,13.67
2018-01-07T03:40:02.677Z,16.53
2018-01-07T03:42:30.197Z,16.03
2018-01-07T03:44:57.728Z,12.30
2018-01-07T03:47:25.329Z,16.60
2018-01-07T03:49:52.851Z,14.27
2018-01-07T03:52:20.411Z,13.13
2018-01-07T03:54:48.836Z,14.37
2018-01-07T03:57:17.173Z,12.87
2018-01-07T03:59:44.708Z,13.77
2018-01-07T04:02:12.265Z,13.47
2018-01-07T04:04:39.798Z,12.03
2018-01-07T04:07:07.392Z,11.43
2018-01-07T04:09:34.913Z,14.70
2018-01-07T04:12:02.470Z,12.43
2018-01-07T04:14:30.006Z,13.83
2018-01-07T04:16:57.578Z,11.23
2018-01-07T04:19:25.140Z,12.67
2018-01-07T04:21:52.689Z,10.67
2018-01-07T04:24:20.245Z,10.50
2018-01-07T04:26:47.790Z,12.40
2018-01-07T04:29:15.343Z,10.77
2018-01-07T04:31:42.899Z,11.30
2018-01-07T04:34:10.454Z,10.53
2018-01-07T04:36:38.010Z,10.57
2018-01-07T04:39:05.572Z,11.17
2018-01-07T04:41:33.097Z,13.10
2018-01-07T04:44:00.726Z,14.40
2018-01-07T04:46:28.252Z,13.67
2018-01-07T04:48:56.168Z,11.17
2018-01-07T04:51:23.726Z,13.30
2018-01-07T04:53:51.289Z,12.13
2018-01-07T04:56:18.806Z,14.50
2018-01-07T04:58:46.380Z,13.37
2018-01-07T05:01:13.902Z,13.07
2018-01-07T05:03:41.453Z,13.00
2018-01-07T05:06:09.012Z,13.90
2018-01-07T05:08:36.562Z,13.93
2018-01-07T05:11:04.890Z,15.93
2018-01-07T05:13:32.405Z,15.73
2018-01-07T05:16:00.721Z,13.00
2018-01-07T05:18:28.267Z,15.23
2018-01-07T05:20:55.791Z,15.70
2018-01-07T05:23:23.364Z,15.43
2018-01-07T05:25:50.976Z,16.10
2018-01-07T05:28:18.521Z,16.40
2018-01-07T05:30:46.081Z,16.07
2018-01-07T06:50:45.672Z,20.43
2018-01-07T06:53:13.193Z,20.50
2018-01-07T06:55:40.728Z,18.70
2018-01-07T06:58:08.283Z,18.47
2018-01-07T07:00:35.872Z,19.93
2018-01-07T07:03:03.393Z,22.47
2018-01-07T07:05:30.940Z,19.53
2018-01-07T07:07:58.467Z,21.30
2018-01-07T07:10:26.045Z,19.00
2018-01-07T07:12:53.570Z,20.07
2018-01-07T07:15:21.140Z,20.87
2018-01-07T07:17:48.689Z,21.03
2018-01-07T07:20:16.214Z,20.97
2018-01-07T07:22:43.773Z,23.50
2018-01-07T07:25:11.284Z,21.57
2018-01-07T07:27:38.835Z,24.00
2018-01-07T07:30:06.414Z,21.27
2018-01-07T07:32:34.705Z,22.20
2018-01-07T07:35:02.263Z,22.37
2018-01-07T07:37:30.555Z,24.00
2018-01-07T07:39:58.118Z,24.47
2018-01-07T07:42:25.645Z,21.60
2018-01-07T07:44:53.203Z,23.07
2018-01-07T07:47:20.780Z,22.70
2018-01-07T07:49:48.318Z,22.60
2018-01-07T07:52:15.882Z,23.03
2018-01-07T07:54:43.434Z,20.23
2018-01-07T07:57:10.997Z,23.33
2018-01-07T07:59:38.555Z,23.43
2018-01-07T08:02:06.120Z,24.97
2018-01-07T08:04:34.433Z,22.03
2018-01-07T08:07:01.985Z,22.50
2018-01-07T08:09:29.542Z,22.33
2018-01-07T08:11:57.061Z,25.40
2018-01-07T08:14:24.659Z,26.07
2018-01-07T08:16:52.204Z,25.93
2018-01-07T08:19:19.733Z,25.33
2018-01-07T08:21:47.301Z,23.00
2018-01-07T08:24:15.594Z,27.10
2018-01-07T08:26:43.186Z,24.27
2018-01-07T08:29:10.712Z,26.23
2018-01-07T08:31:38.325Z,27.33
2018-01-07T08:34:05.886Z,25.07
2018-01-07T08:36:33.424Z,24.37
2018-01-07T08:39:00.950Z,23.13
2018-01-07T08:41:28.503Z,28.17
2018-01-07T08:43:56.026Z,29.10
2018-01-07T08:46:23.606Z,24.83
2018-01-07T08:48:51.130Z,28.17
2018-01-07T08:51:18.702Z,25.07
2018-01-07T08:53:47.029Z,25.33
2018-01-07T08:56:15.378Z,26.07
2018-01-07T08:58:42.936Z,25.47
2018-01-07T09:01:10.493Z,24.60
2018-01-07T09:03:38.021Z,24.03
2018-01-07T09:06:05.580Z,23.83
2018-01-07T09:08:33.107Z,25.60
2018-01-07T09:11:00.666Z,22.77
2018-01-07T09:13:28.277Z,23.33
2018-01-07T09:15:55.793Z,21.70
2018-01-07T09:18:23.369Z,24.47
2018-01-07T09:20:50.884Z,25.93
2018-01-07T09:23:18.449Z,23.33
2018-01-07T09:25:46.014Z,20.67
2018-01-07T09:28:13.540Z,22.33
2018-01-07T09:30:41.105Z,20.43
2018-01-07T09:33:08.631Z,21.47
2018-01-07T09:35:36.201Z,20.00
2018-01-07T09:38:03.761Z,19.33
2018-01-07T09:40:32.083Z,22.27
2018-01-07T09:42:59.656Z,19.90
2018-01-07T09:45:27.200Z,22.57
2018-01-07T09:47:54.737Z,21.40
2018-01-07T09:50:22.268Z,22.77
2018-01-07T09:52:49.824Z,20.80
2018-01-07T09:55:17.378Z,20.70
2018-01-07T09:57:44.912Z,24.00
2018-01-07T10:00:13.259Z,25.40
2018-01-07T10:02:40.797Z,27.57
2018-01-07T10:05:08.361Z,23.60
2018-01-07T10:07:36.687Z,21.37
2018-01-07T10:10:04.209Z,22.37
2018-01-07T10:12:31.789Z,19.90
2018-01-07T10:14:59.313Z,22.03
2018-01-07T10:17:26.916Z,22.00
2018-01-07T10:19:54.491Z,20.27
2018-01-07T10:22:22.774Z,22.03
2018-01-07T10:24:50.335Z,21.70
2018-01-07T10:27:18.671Z,24.63
2018-01-07T10:29:46.246Z,24.90
2018-01-07T10:32:13.797Z,24.77
2018-01-07T10:34:41.366Z,24.27
2018-01-07T10:37:08.927Z,25.20
2018-01-07T10:39:36.500Z,23.90
2018-01-07T10:42:04.100Z,23.03
2018-01-07T10:44:31.625Z,24.83
2018-01-07T10:46:59.178Z,26.00
2018-01-07T10:49:26.736Z,24.13
2018-01-07T10:51:55.028Z,21.67
2018-01-07T10:54:22.588Z,24.47
2018-01-07T10:56:50.914Z,26.50
2018-01-07T10:59:18.454Z,23.17
2018-01-07T11:01:51.453Z,24.97
2018-01-07T11:04:19.058Z,24.30
2018-01-07T11:06:46.621Z,26.50
2018-01-07T11:09:14.950Z,25.40
2018-01-07T11:11:42.538Z,23.47
2018-01-07T11:14:10.122Z,21.37
2018-01-07T11:16:37.685Z,22.40
2018-01-07T11:19:06.017Z,25.73
2018-01-07T11:21:33.544Z,23.80
2018-01-07T11:24:01.084Z,19.93
2018-01-07T11:26:29.434Z,19.27
2018-01-07T11:28:56.968Z,22.63
2018-01-07T11:31:24.489Z,21.07
2018-01-07T11:33:52.046Z,20.67
2018-01-07T11:36:19.582Z,18.50
2018-01-07T11:41:29.054Z,18.07
2018-01-07T11:43:56.613Z,17.00
2018-01-07T11:46:24.902Z,20.30
2018-01-07T11:48:52.470Z,17.63
2018-01-07T11:51:20.000Z,16.87
2018-01-07T11:53:47.649Z,18.97
2018-01-07T11:56:15.213Z,17.00
2018-01-07T11:58:42.736Z,19.73
2018-01-07T12:01:10.295Z,19.80
2018-01-07T12:03:37.860Z,19.50
2018-01-07T12:06:05.425Z,22.07
2018-01-07T12:08:32.992Z,18.97
2018-01-07T12:11:00.568Z,18.37
2018-01-07T12:13:28.137Z,18.83
2018-01-07T12:15:55.662Z,20.07
2018-01-07T12:18:23.222Z,21.67
2018-01-07T12:20:50.805Z,19.20
2018-01-07T12:23:18.330Z,19.87
2018-01-07T12:25:45.933Z,22.00
2018-01-07T12:28:13.458Z,23.20
2018-01-07T12:30:41.069Z,18.87
2018-01-07T12:33:09.388Z,20.57
2018-01-07T12:35:36.909Z,19.10
2018-01-07T12:38:05.231Z,17.10
2018-01-07T12:40:32.793Z,16.83
2018-01-07T12:43:00.398Z,17.47
2018-01-07T12:45:28.113Z,19.30
2018-01-07T12:47:55.667Z,18.17
2018-01-07T12:50:23.185Z,17.93
2018-01-07T12:52:51.580Z,20.90
2018-01-07T12:55:19.137Z,16.33
2018-01-07T12:57:46.708Z,16.17
2018-01-07T13:00:14.300Z,17.70
2018-01-07T13:02:41.824Z,17.83
2018-01-07T13:05:09.381Z,16.00
2018-01-07T13:07:36.954Z,14.80
2018-01-07T13:10:04.537Z,16.50
2018-01-07T13:12:32.107Z,16.00
2018-01-07T13:14:59.642Z,13.37
2018-01-07T13:17:27.231Z,16.67
2018-01-07T13:19:54.767Z,14.20
2018-01-07T13:22:22.354Z,15.83
2018-01-07T13:24:49.889Z,15.13
2018-01-07T13:27:17.480Z,14.80
2018-01-07T13:29:45.065Z,16.17
2018-01-07T13:32:12.601Z,16.83
2018-01-07T13:34:40.169Z,16.70
2018-01-07T13:37:08.484Z,17.13
2018-01-07T13:39:36.049Z,16.30
2018-01-07T13:42:03.695Z,15.33
2018-01-07T13:44:31.307Z,15.50
2018-01-07T13:46:58.908Z,15.67
2018-01-07T13:49:26.490Z,15.77
2018-01-07T13:51:54.140Z,15.70
2018-01-07T13:54:21.686Z,14.30
2018-01-07T13:56:49.329Z,15.53
2018-01-07T13:59:16.938Z,16.53
2018-01-07T14:01:44.499Z,14.63
2018-01-07T14:04:12.104Z,16.50
2018-01-07T14:06:39.640Z,15.10
2018-01-07T14:09:07.217Z,17.07
2018-01-07T14:11:34.758Z,18.63
2018-01-07T14:14:02.306Z,15.33
2018-01-07T14:16:29.911Z,16.43
2018-01-07T14:18:57.461Z,14.67
2018-01-07T14:21:25.078Z,15.50
2018-01-07T14:23:52.610Z,15.93
2018-01-07T14:26:20.206Z,16.63
2018-01-07T14:28:47.791Z,13.63
2018-01-07T14:31:15.366Z,14.90
2018-01-07T14:33:42.878Z,12.67
2018-01-07T14:36:10.452Z,12.77
2018-01-07T14:38:38.785Z,12.80
2018-01-07T14:41:07.088Z,12.73
2018-01-07T14:43:34.918Z,11.97
2018-01-07T14:46:02.553Z,11.50
2018-01-07T14:48:30.110Z,10.53
2018-01-07T14:50:57.684Z,11.33
2018-01-07T14:53:25.229Z,13.13
2018-01-07T14:55:52.871Z,12.30
2018-01-07T14:58:20.480Z,11.53
2018-01-07T15:00:48.839Z,11.47
2018-01-07T15:03:16.447Z,11.30
2018-01-07T15:05:43.987Z,10.20
2018-01-07T15:08:11.611Z,12.67
2018-01-07T15:10:39.148Z,12.90
2018-01-07T15:13:06.709Z,12.03
2018-01-07T15:15:34.254Z,13.40
2018-01-07T15:18:01.830Z,12.37
2018-01-07T15:20:29.369Z,13.70
2018-01-07T15:22:56.942Z,13.43
2018-01-07T15:25:24.636Z,12.97
2018-01-07T15:27:52.324Z,12.00
2018-01-07T15:30:19.956Z,14.23
2018-01-07T15:32:47.565Z,12.53
2018-01-07T15:35:15.194Z,13.93
2018-01-07T15:37:42.769Z,12.27
2018-01-07T15:40:10.337Z,16.17
2018-01-07T15:42:38.661Z,10.87
2018-01-07T15:45:06.229Z,10.87
2018-01-07T15:47:33.851Z,11.77
2018-01-07T15:50:01.473Z,10.23
2018-01-07T15:52:29.058Z,9.10
2018-01-07T15:54:56.655Z,11.93
2018-01-07T15:57:24.246Z,11.60
2018-01-07T15:59:51.856Z,9.37
2018-01-07T16:02:19.385Z,9.30
2018-01-07T16:04:48.598Z,8.80
2018-01-07T16:07:17.010Z,11.83
2018-01-07T16:09:44.594Z,7.27
2018-01-07T16:12:12.121Z,8.93
2018-01-07T16:14:39.743Z,7.17
2018-01-07T16:17:07.274Z,8.37
2018-01-07T16:19:34.826Z,7.33
2018-01-07T16:22:02.395Z,7.23
2018-01-07T16:24:30.153Z,8.50
2018-01-07T16:26:57.770Z,8.87
2018-01-07T16:29:25.359Z,7.60
2018-01-07T16:31:52.959Z,7.83
2018-01-07T16:34:20.543Z,7.90
2018-01-07T16:36:48.937Z,8.53
2018-01-07T16:39:16.511Z,7.90
2018-01-07T16:41:44.103Z,9.63
2018-01-07T16:44:11.780Z,7.97
2018-01-07T16:46:39.390Z,10.03
2018-01-07T16:49:07.056Z,9.90
2018-01-07T16:51:34.665Z,7.70
2018-01-07T16:54:02.233Z,7.43
2018-01-07T16:56:29.803Z,7.50
2018-01-07T16:58:58.262Z,7.63
2018-01-07T17:01:25.893Z,7.57
2018-01-07T17:03:53.513Z,8.60
2018-01-07T17:06:21.151Z,8.87
2018-01-07T17:08:49.537Z,7.63
2018-01-07T17:11:17.927Z,8.40
2018-01-07T17:13:46.304Z,8.97
2018-01-07T17:16:14.689Z,9.37
2018-01-07T17:18:43.080Z,10.60
2018-01-07T17:21:10.704Z,10.13
2018-01-07T17:23:38.315Z,12.10
2018-01-07T17:26:05.952Z,10.97
2018-01-07T17:28:33.568Z,11.10
2018-01-07T17:31:01.144Z,12.57
2018-01-07T17:33:28.747Z,13.37
2018-01-07T17:35:56.314Z,15.53
2018-01-07T17:38:23.932Z,12.97
2018-01-07T17:40:51.523Z,14.40
2018-01-07T17:43:19.123Z,15.00
2018-01-07T17:45:46.744Z,13.43
2018-01-07T17:48:14.326Z,14.10
2018-01-07T17:50:41.951Z,13.33
2018-01-07T17:53:09.529Z,14.40
2018-01-07T17:55:37.190Z,14.63
2018-01-07T17:58:04.777Z,14.83
2018-01-07T18:00:32.419Z,15.87
2018-01-07T18:03:00.028Z,15.97
2018-01-07T18:05:27.633Z,17.03
2018-01-07T18:07:55.217Z,14.23
2018-01-07T18:10:22.842Z,16.37
2018-01-07T18:12:50.427Z,14.63
2018-01-07T18:15:18.056Z,14.30
2018-01-07T18:17:45.662Z,14.00
2018-01-07T18:20:13.312Z,14.47
2018-01-07T18:22:40.940Z,14.83
2018-01-07T18:25:09.318Z,14.87
2018-01-07T18:27:37.697Z,13.83
2018-01-07T18:30:06.039Z,13.57
2018-01-07T18:32:33.658Z,13.23
2018-01-07T18:35:01.262Z,13.53
2018-01-07T18:37:28.873Z,12.07
2018-01-07T18:39:56.515Z,13.90
2018-01-07T18:42:24.075Z,12.93
2018-01-07T18:44:51.692Z,11.77
2018-01-07T18:47:19.258Z,13.50
2018-01-07T18:49:46.917Z,13.20
2018-01-07T18:52:14.538Z,11.67
2018-01-07T18:54:42.167Z,11.13
2018-01-07T18:57:09.760Z,14.93
2018-01-07T18:59:37.400Z,13.77
2018-01-07T19:02:05.015Z,9.87
2018-01-07T19:04:32.612Z,10.83
2018-01-07T19:07:00.292Z,13.37
2018-01-07T19:09:27.870Z,13.23
2018-01-07T19:11:56.238Z,11.43
2018-01-07T19:14:24.584Z,11.83
2018-01-07T19:16:52.226Z,10.30
2018-01-07T19:19:19.807Z,11.93
2018-01-07T19:21:47.438Z,11.20
2018-01-07T19:24:15.393Z,10.77
2018-01-07T19:26:42.968Z,10.60
2018-01-07T19:29:10.581Z,12.23
2018-01-07T19:31:38.179Z,11.30
2018-01-07T19:34:05.816Z,12.23
2018-01-07T19:36:34.168Z,12.07
2018-01-07T19:39:01.850Z,13.50
2018-01-07T19:41:29.530Z,11.97
2018-01-07T19:43:57.134Z,12.80
2018-01-07T19:46:24.729Z,10.73
2018-01-07T19:48:52.355Z,12.83
2018-01-07T19:51:19.999Z,13.17
2018-01-07T19:53:47.600Z,12.40
2018-01-07T19:56:15.215Z,12.40
2018-01-07T19:58:42.829Z,12.13
2018-01-07T20:01:10.465Z,12.70
2018-01-07T20:03:38.129Z,13.03
2018-01-07T20:06:05.734Z,11.80
2018-01-07T20:08:33.311Z,11.93
2018-01-07T20:11:00.926Z,12.83
2018-01-07T20:13:28.647Z,18.53
2018-01-07T20:15:56.280Z,14.57
2018-01-07T20:18:24.699Z,14.30
2018-01-07T20:20:52.363Z,14.17
2018-01-07T20:23:19.983Z,11.30
2018-01-07T20:25:47.578Z,18.20
2018-01-07T20:28:15.210Z,13.43
2018-01-07T20:30:42.833Z,15.80
2018-01-07T20:33:10.436Z,16.30
2018-01-07T20:35:38.053Z,14.90
2018-01-07T20:38:05.658Z,14.30
2018-01-07T20:40:33.268Z,13.33
2018-01-07T20:43:00.837Z,14.93
2018-01-07T20:45:28.515Z,14.17
2018-01-07T20:47:56.873Z,12.93
2018-01-07T20:50:24.441Z,15.53
2018-01-07T20:52:52.068Z,16.97
2018-01-07T20:55:19.686Z,14.47
2018-01-07T20:57:47.328Z,17.40
2018-01-07T21:00:14.928Z,15.40
2018-01-07T21:02:42.699Z,14.33
2018-01-07T21:05:10.322Z,15.80
2018-01-07T21:07:38.684Z,17.27
2018-01-07T21:10:06.253Z,15.07
2018-01-07T21:12:33.885Z,16.43
2018-01-07T21:15:01.503Z,15.37
2018-01-07T21:17:29.115Z,17.30
2018-01-07T21:19:56.793Z,15.87
2018-01-07T21:22:24.420Z,16.07
2018-01-07T21:24:52.032Z,19.37
2018-01-07T21:27:19.627Z,14.97
2018-01-07T21:29:47.243Z,17.23
2018-01-07T21:32:14.871Z,13.83
2018-01-07T21:34:42.473Z,19.63
2018-01-07T21:37:10.077Z,16.40
2018-01-07T21:39:37.667Z,17.10
2018-01-07T21:42:05.297Z,17.57
2018-01-07T21:44:32.877Z,18.70
2018-01-07T21:47:00.467Z,15.43
2018-01-07T21:49:28.094Z,19.57
2018-01-07T21:51:55.666Z,16.93
2018-01-07T21:54:23.300Z,16.63
2018-01-07T21:56:51.283Z,16.60
2018-01-07T21:59:18.880Z,17.07
2018-01-07T22:01:58.293Z,16.90
2018-01-07T22:04:37.560Z,15.07
2018-01-07T22:07:05.236Z,18.93
2018-01-07T22:09:32.852Z,16.37
2018-01-07T22:12:00.441Z,17.00
2018-01-07T22:14:28.057Z,18.10
2018-01-07T22:16:55.676Z,16.57
2018-01-07T22:19:23.273Z,18.07
2018-01-07T22:21:50.885Z,17.73
2018-01-07T22:24:18.470Z,24.90
2018-01-07T22:26:46.123Z,18.87
2018-01-07T22:29:13.748Z,19.50
2018-01-07T22:31:41.332Z,19.77
2018-01-07T22:34:08.979Z,19.80
2018-01-07T22:36:36.571Z,16.40
2018-01-07T22:39:04.193Z,20.93
2018-01-07T22:41:31.779Z,19.80
2018-01-07T22:43:59.395Z,20.80
2018-01-07T22:46:27.033Z,24.03
2018-01-07T22:48:54.647Z,20.40
2018-01-07T22:51:22.230Z,20.30
2018-01-07T22:53:49.839Z,19.50
2018-01-07T22:56:17.468Z,21.27
2018-01-07T22:58:45.098Z,22.13
2018-01-07T23:01:12.673Z,22.07
2018-01-07T23:03:40.284Z,21.00
2018-01-07T23:06:07.864Z,22.67
2018-01-07T23:08:35.477Z,24.47
2018-01-07T23:11:03.079Z,20.97
2018-01-07T23:13:30.657Z,24.50
2018-01-07T23:15:58.272Z,21.63
2018-01-07T23:18:25.836Z,21.00
2018-01-07T23:20:53.434Z,24.37
2018-01-07T23:23:21.037Z,25.27
2018-01-07T23:25:48.641Z,21.33
2018-01-07T23:28:16.206Z,20.77
2018-01-07T23:30:43.825Z,24.87
2018-01-07T23:33:11.432Z,21.17
2018-01-07T23:35:39.032Z,21.57
2018-01-07T23:38:08.015Z,22.53
2018-01-07T23:40:36.330Z,24.43
2018-01-07T23:43:03.860Z,20.03
2018-01-07T23:45:32.209Z,25.80
2018-01-07T23:47:59.790Z,21.97
2018-01-07T23:50:27.346Z,23.27
2018-01-07T23:52:54.882Z,23.40
2018-01-07T23:55:22.446Z,23.00
2018-01-07T23:57:50.001Z,23.37
